x

Nantucket Sound (44020) Wave Buoy

10:50 - Sun 25th Sep 2016 All times are EDT. -4 hours from GMT.

  • Sig Wave height 2.3ft
  • Swell Direction
  • Peak Period 4s
  • Average Period 4s
  • Wind
    18mph, 25mph gusts
  • Sea Temp 68°f
  • Air Temp 57°f
  • Sea Pressure 1019.3mb
  • Nantucket Sound
  • Nantucket Sound

More Historic Weather Station data

Upgrade to MSW Pro to gain access to the past 30 days of data for over 8000 Wavebouys and Weather Stations around the globe.

Join Pro

Comparision Forecast

View Surf forecast
   
dim. 09/25 10:50 2.5ft 4s 4s 18 25 mph 1019.3mb 68f 57f
9:50 2.5ft 4s 4s 16 22 mph 1019.2mb 69f 56f
8:50 2.5ft 4s 3s 20 25 mph 1019.1mb 69f 56f
7:50 2.5ft 3s 3s 16 20 mph 1019.1mb 69f 57f
6:50 2.5ft 4s 3s 20 25 mph 1018.7mb 69f 58f
5:50 2.5ft 3s 3s 20 27 mph 1018.1mb 69f 59f
4:50 2.5ft 3s 3s 25 31 mph 1017.6mb 69f 59f
3:50 2.5ft 3s 3s 25 29 mph 1017.5mb 69f 60f
2:50 2.5ft 3s 3s 22 27 mph 1017.4mb 68f 60f
1:50 2ft 3s 3s 22 27 mph 1017.6mb 67f 61f
12:50 2.5ft 3s 3s 22 27 mph 1017.5mb 66f 62f
sam. 09/24 11:50 1.6ft 3s 3s 20 27 mph 1017.9mb 66f 63f
10:50 1.3ft 3s 3s 20 25 mph 1018mb 67f 63f
9:50 1.3ft 5s 4s 13 18 mph 1018.2mb 68f 63f
8:50 1.3ft 5s 4s 9 11 mph 1018.3mb 69f 63f
7:50 1.6ft 5s 4s 7 9 mph 1018.2mb 70f 63f
6:50 2ft 3s 4s 7 9 mph 1017.8mb 70f 62f
5:50 2ft 3s 4s 11 16 mph 1017.5mb 70f 63f
4:50 2ft 3s 3s 16 20 mph 1017.3mb 70f 63f
3:50 2.5ft 4s 3s 18 22 mph 1017.2mb 70f 62f
2:50 2.5ft 4s 4s 18 25 mph 1017.3mb 70f 62f
1:50 2.5ft 4s 3s 18 22 mph 1017.7mb 69f 62f
12:50 2ft 3s 3s 13 18 mph 1018.2mb 68f 62f
11:50 2.5ft 3s 3s 16 20 mph 1018mb 67f 62f
10:50 2ft 3s 3s 18 22 mph 1017.9mb 68f 62f
9:50 2ft 3s 3s 16 20 mph 1017.8mb 69f 61f
8:50 2.5ft 3s 3s 18 22 mph 1017.7mb 70f 61f
7:50 2.5ft 3s 3s 18 22 mph 1017.6mb 70f 62f
6:50 2.5ft 3s 4s 20 25 mph 1017.2mb 70f 62f
5:50 2.5ft 3s 4s 18 22 mph 1016.8mb 71f 62f
4:50 2.5ft 4s 4s 18 22 mph 1016.4mb 71f 62f
3:50 2.5ft 4s 4s 20 25 mph 1016.9mb 71f 61f
2:50 3ft 4s 4s 20 25 mph 1016.9mb 70f 61f
1:50 2.5ft 4s 4s 25 31 mph 1016.5mb 69f 61f
12:50 2.5ft 4s 4s 22 27 mph 1016.3mb 69f 63f
ven. 09/23 11:50 2.5ft 4s 4s 22 27 mph 1016mb 68f 63f
10:50 2.5ft 4s 4s 22 29 mph 1015.8mb 68f 64f
9:50 3ft 4s 4s 22 27 mph 1015.3mb 69f 64f
8:50 1.6ft 3s 3s 25 27 mph 1014.7mb 70f 66f
7:50 1ft 5s 4s 20 22 mph 1014mb 71f 71f
6:50 1.3ft 5s 4s 4 7 mph 1013.8mb 71f 71f
5:50 1.3ft 11s 4s 7
mph
1013.4mb 71f 71f
4:50 1ft 9s 4s 9 11 mph 1013.2mb 71f 71f
3:50 0.7ft  -  4s 11 13 mph 1013.5mb 71f 71f
2:50 0.7ft  -  4s 13 16 mph 1013.8mb 72f 70f
1:50 0.7ft  -  4s 13 16 mph 1014.2mb 72f 71f
12:50 0.7ft  -  4s 11 13 mph 1014.6mb 72f 70f
11:50 1ft 4s 4s 7 9 mph 1015.5mb 71f 71f
10:50 0.7ft  -  5s 4
mph
1016.3mb 70f 70f
9:50 0.7ft  -  5s 4
mph
1016.9mb 70f 70f
8:50 0.7ft  -  5s 4 7 mph 1016.7mb 70f 70f
7:50 0.7ft  -  4s 7
mph
1016.5mb 71f 71f
6:50 0.7ft  -  4s 9 11 mph 1016.1mb 71f 70f
5:50 1ft 9s 5s 4
mph
1016.7mb 71f 69f
4:50 0.7ft  -  5s 7
mph
1016.6mb 71f 70f
3:50 0.7ft  -  4s 9
mph
1016.8mb 71f 69f
2:50 0.3ft  -  4s 9
mph
1017.3mb 71f 70f
1:50 0.3ft  -  4s 9
mph
1017.5mb 71f 70f
12:50 0.3ft  -  4s 7 9 mph 1018.4mb 70f 70f
jeu. 09/22 11:50 0.3ft  -  5s 4 7 mph 1018.9mb 70f 69f
10:50 0.7ft  -  5s 7 9 mph 1019.2mb 69f 69f
9:50 0.7ft  -  5s 4 7 mph 1019.5mb 69f 68f
8:50 0.7ft  -  5s 7 9 mph 1019.7mb 69f 69f
7:50 0.7ft  -  4s 9
mph
1019.4mb 71f 69f
6:50 0.7ft  -  5s 11
mph
1019.5mb 71f 69f
5:50 1ft 4s 4s 9 11 mph 1019.6mb 72f 69f
4:50 1ft 9s 5s 9 11 mph 1019.9mb 71f 69f
3:50 0.7ft  -  4s 7 9 mph 1019.7mb 71f 70f
2:50 0.7ft  -  4s 9
mph
1019.8mb 71f 70f
1:50 0.3ft  -  4s 7 9 mph 1020.1mb 72f 69f
12:50 0.3ft  -  4s 7
mph
1021.1mb 72f 69f
11:50 0.7ft  -  4s 4 7 mph 1021.7mb 72f 70f
10:50 0.7ft  -  4s 2 4 mph 1021.9mb 70f 69f
9:50 0.7ft  -   -  2 4 mph 1022.1mb 70f 69f
8:50 0.7ft  -  5s 4
mph
1021.5mb 69f 70f
7:50 0.7ft  -  4s 2
mph
1021.1mb 70f 72f
6:50 0.7ft  -  4s 2 4 mph 1020.9mb 71f 71f
5:50 0.7ft  -  4s 2 4 mph 1020.7mb 71f 70f
4:50 0.7ft  -  5s 2
mph
1020.5mb 71f 71f
3:50 0.7ft  -  5s 2 4 mph 1020.4mb 71f 70f
2:50 0.7ft  -  5s 4
mph
1020.4mb 71f 70f
1:50 0.3ft  -  4s 4
mph
1020.8mb 71f 70f
12:50 0.3ft  -  4s 7
mph
1021.3mb 71f 70f
mer. 09/21 11:50 0.7ft  -  3s 7
mph
1021.3mb 70f 70f
10:50 0.7ft  -  4s 4
mph
1021.2mb 70f 70f
9:50 0.7ft  -  5s  -  2 mph 1021.4mb 69f 68f
8:50 0.3ft  -  5s 2
mph
1021.5mb 69f 68f
7:50 0.7ft  -  4s 4
mph
1020.9mb 69f 67f
6:50 0.7ft  -  4s 7
mph
1020.5mb 70f 68f
5:50 0.7ft  -  3s 7 9 mph 1020.1mb 71f 70f
4:50 1ft 3s 3s 7
mph
1020mb 71f 71f